Atkinson, NE

1:03 AM CDT on August 28, 2016 (GMT -0500)
The O'Neill Municipal-Baker | | Change Station

Elev 2031 ft 42.47 °N, 98.69 °W | Updated 8 minutes ago

Clear
Clear
68 °F
Feels Like 68 °F
N
6
Wind Variable Wind from SSE

Today
High -- | Low -- °F
--% Chance of Precip.
Yesterday
High -- | Low -- °F
Precip. -- in
Pressure 30.04 in
Visibility 10.0 miles
Clouds Clear
Dew Point 64 °F
Humidity 87%
Rainfall 0.00 in
Snow Depth Not available.
6:57 AM 8:15 PM
Waning Crescent, 18% visible
METAR KONL 280555Z AUTO 15005KT 10SM CLR 20/18 A3004 RMK AO2 T01970175 10286 20197 402990135
Pressure 30.04 in
Visibility 10.0 miles
Clouds Clear
Dew Point 64 °F
Humidity 87%
Rainfall 0.00 in
Snow Depth Not available.
6:57 AM 8:15 PM
Waning Crescent, 18% visible
METAR KONL 280555Z AUTO 15005KT 10SM CLR 20/18 A3004 RMK AO2 T01970175 10286 20197 402990135

10-Day Weather Forecast

Almanac

Astronomy

Aug. 28, 2016 Rise Set
Actual Time
Civil Twilight
Nautical Twilight
Astronomical Twilight
Moon
Length of Visible Light
Length of Day
Tomorrow will be .
, % of the Moon is Illuminated

Today's Extremes

State Highs State Lows

Community

WunderPhotos

Upload Photos

1,935,533 photos uploaded!

WunderBlog® & News

Nearby

Air Quality

  Air Quality AQ Index Pollutant
Not available.

Snow Depth

Station Depth Elevation

Earthquake Activity

City Distance Mag. Time & Date
Minimum magnitude displayed is 2.5.

Coastal Water Temperatures

Place Temperature

Stations

Nearby Weather Stations

Station Location Temp. Windchill Dew Point Humidity Wind Precip. Elev Updated Type
                   

Watches & Warnings

There are currently no watches in effect.